Welcome to Northern Hawkes Bay. New Zealand.
PWS Header
      nz Flag



Hit Counter


W3C Valid W3C Valid logo


    Wairoa

Select any of the Stations below to visit their websites.










Historic Data from Weather Underground
Select the location of interest below. Wairoa is the default. Please have patience, this Data is slow to load in.
Northern Hawkes Bay Historical Data
Daily Summary for January 3, 2017 Units:  Metric    English   Both
« Previous Day
Next Day »
Daily Weekly Monthly Yearly Custom
  High: Low: Average:
Temperature: 26.9 °C 13.5 °C 19.4 °C
Dew Point: 18.2 °C 13.3 °C 14.9 °C
Humidity: 99% 49% 78%
Wind Speed: 31.7km/h 0.0km/h 7.1km/h
Wind Gust: 54.1km/h - -
Wind- - SW
Pressure: 1016.1 hPa 1001.6 hPa -
Precipitation: 0.3 mm    
Historical Graphs
 
 
Tabular Data for January 3, 2017
Time Temperature Dew Point Pressure Wind Wind Speed Wind Gust Humidity Rainfall Rate (Hourly) solar
00:01 13.8 °C 13.7 °C 1015.8 hPa NNW 2.6 km/h 6.1 km/h 99% 0.3 mm 0 W/m2
00:20 13.8 °C 13.7 °C 1015.8 hPa North 2.6 km/h 6.1 km/h 99% 0.3 mm 0 W/m2
00:25 13.8 °C 13.7 °C 1016.1 hPa North 1.1 km/h 5.0 km/h 99% 0.3 mm 0 W/m2
00:30 13.7 °C 13.6 °C 1016.1 hPa North 3.5 km/h 6.1 km/h 99% 0.3 mm 0 W/m2
00:35 13.7 °C 13.6 °C 1016.1 hPa NNW 3.5 km/h 7.2 km/h 99% 0.3 mm 0 W/m2
00:40 13.7 °C 13.6 °C 1016.1 hPa NNW 6.1 km/h 7.2 km/h 99% 0.3 mm 0 W/m2
00:45 13.6 °C 13.4 °C 1016.1 hPa NNW 2.6 km/h 7.2 km/h 99% 0.3 mm 0 W/m2
00:50 13.6 °C 13.4 °C 1015.8 hPa Calm   7.2 km/h 99% 0.3 mm 0 W/m2
00:55 13.6 °C 13.4 °C 1015.8 hPa NNW 1.1 km/h 5.0 km/h 99% 0.0 mm 0 W/m2
01:00 13.6 °C 13.4 °C 1015.8 hPa NW 3.5 km/h 5.0 km/h 99% 0.0 mm 0 W/m2
01:05 13.6 °C 13.4 °C 1015.5 hPa NW 3.5 km/h 5.0 km/h 99% 0.0 mm 0 W/m2
01:10 13.6 °C 13.4 °C 1015.5 hPa NNW 2.6 km/h 5.0 km/h 99% 0.0 mm 0 W/m2
01:15 13.6 °C 13.4 °C 1015.5 hPa NNE 2.6 km/h 5.0 km/h 99% 0.0 mm 0 W/m2
01:20 13.6 °C 13.4 °C 1015.1 hPa North 2.6 km/h 6.1 km/h 99% 0.0 mm 0 W/m2
01:25 13.5 °C 13.3 °C 1014.8 hPa NNW 2.6 km/h 6.1 km/h 99% 0.0 mm 0 W/m2
01:30 13.5 °C 13.3 °C 1015.1 hPa NNW 3.5 km/h 5.0 km/h 99% 0.0 mm 0 W/m2
01:35 13.6 °C 13.4 °C 1015.1 hPa NNW 2.6 km/h 5.0 km/h 99% 0.0 mm 0 W/m2
01:40 13.6 °C 13.4 °C 1015.1 hPa NNW 3.5 km/h 6.1 km/h 99% 0.0 mm 0 W/m2
01:45 13.6 °C 13.4 °C 1014.8 hPa North 2.6 km/h 6.1 km/h 99% 0.0 mm 0 W/m2
01:50 13.6 °C 13.4 °C 1014.8 hPa North 1.1 km/h 6.1 km/h 99% 0.0 mm 0 W/m2
01:55 13.6 °C 13.4 °C 1014.8 hPa North 1.1 km/h 5.0 km/h 99% 0.0 mm 0 W/m2
02:00 13.6 °C 13.4 °C 1014.4 hPa Calm   5.0 km/h 99% 0.0 mm 0 W/m2
02:05 13.6 °C 13.4 °C 1014.4 hPa NNW 1.1 km/h 3.5 km/h 99% 0.0 mm 0 W/m2
02:10 13.6 °C 13.4 °C 1014.4 hPa North 1.1 km/h 3.5 km/h 99% 0.0 mm 0 W/m2
02:15 13.6 °C 13.4 °C 1014.1 hPa North 2.6 km/h 5.0 km/h 99% 0.0 mm 0 W/m2
02:20 13.6 °C 13.4 °C 1014.4 hPa North 1.1 km/h 5.0 km/h 99% 0.0 mm 0 W/m2
02:25 13.6 °C 13.4 °C 1014.1 hPa NNW 2.6 km/h 6.1 km/h 99% 0.0 mm 0 W/m2
02:30 13.6 °C 13.4 °C 1014.1 hPa NNW 2.6 km/h 6.1 km/h 99% 0.0 mm 0 W/m2
02:35 13.6 °C 13.4 °C 1014.1 hPa NNW 2.6 km/h 6.1 km/h 99% 0.0 mm 0 W/m2
02:40 13.6 °C 13.4 °C 1014.1 hPa Calm   6.1 km/h 99% 0.0 mm 0 W/m2
02:45 13.6 °C 13.4 °C 1014.1 hPa NW 1.1 km/h 3.5 km/h 99% 0.0 mm 0 W/m2
02:50 13.6 °C 13.4 °C 1014.1 hPa NW 1.1 km/h 3.5 km/h 99% 0.0 mm 0 W/m2
02:55 13.6 °C 13.4 °C 1013.8 hPa Calm   3.5 km/h 99% 0.0 mm 0 W/m2
03:00 13.6 °C 13.4 °C 1014.1 hPa Calm   3.5 km/h 99% 0.0 mm 0 W/m2
03:05 13.7 °C 13.6 °C 1013.8 hPa Calm   3.5 km/h 99% 0.0 mm 0 W/m2
03:10 13.6 °C 13.4 °C 1013.8 hPa Calm   3.5 km/h 99% 0.0 mm 0 W/m2
03:15 13.6 °C 13.4 °C 1013.4 hPa Calm   2.6 km/h 99% 0.0 mm 0 W/m2
03:20 13.6 °C 13.4 °C 1013.8 hPa Calm   2.6 km/h 99% 0.0 mm 0 W/m2
03:25 13.6 °C 13.4 °C 1013.8 hPa Calm   2.6 km/h 99% 0.0 mm 0 W/m2
03:30 13.6 °C 13.4 °C 1013.4 hPa Calm   2.6 km/h 99% 0.0 mm 0 W/m2
03:35 13.6 °C 13.4 °C 1013.4 hPa Calm   2.6 km/h 99% 0.0 mm 0 W/m2
03:40 13.6 °C 13.4 °C 1013.8 hPa Calm   1.1 km/h 99% 0.0 mm 0 W/m2
03:45 13.5 °C 13.3 °C 1013.4 hPa Calm     99% 0.0 mm 0 W/m2
03:50 13.6 °C 13.4 °C 1013.1 hPa NE 2.6 km/h 5.0 km/h 99% 0.0 mm 0 W/m2
03:55 13.6 °C 13.4 °C 1013.4 hPa Calm   5.0 km/h 99% 0.0 mm 0 W/m2
04:00 13.6 °C 13.4 °C 1013.4 hPa NE 1.1 km/h 5.0 km/h 99% 0.0 mm 0 W/m2
04:05 13.6 °C 13.4 °C 1013.1 hPa NE 1.1 km/h 3.5 km/h 99% 0.0 mm 0 W/m2
04:10 13.6 °C 13.4 °C 1013.4 hPa Calm   3.5 km/h 99% 0.3 mm 0 W/m2
04:15 13.6 °C 13.4 °C 1013.4 hPa Calm   5.0 km/h 99% 0.3 mm 0 W/m2
04:20 13.6 °C 13.4 °C 1013.4 hPa Calm   5.0 km/h 99% 0.3 mm 0 W/m2
04:25 13.6 °C 13.4 °C 1013.4 hPa Calm   1.1 km/h 99% 0.3 mm 0 W/m2
04:30 13.6 °C 13.4 °C 1013.4 hPa Calm   1.1 km/h 99% 0.3 mm 0 W/m2
04:36 13.6 °C 13.4 °C 1013.4 hPa Calm   1.1 km/h 99% 0.3 mm 0 W/m2
04:41 13.6 °C 13.4 °C 1013.4 hPa Calm   1.1 km/h 99% 0.3 mm 0 W/m2
04:46 13.6 °C 13.4 °C 1013.4 hPa Calm   1.1 km/h 99% 0.3 mm 0 W/m2
04:51 13.6 °C 13.4 °C 1013.1 hPa Calm   2.6 km/h 99% 0.3 mm 0 W/m2
04:54 13.6 °C 13.4 °C 1013.4 hPa Calm   2.6 km/h 99% 0.3 mm 0 W/m2
04:59 13.6 °C 13.4 °C 1013.4 hPa Calm   1.1 km/h 99% 0.3 mm 0 W/m2
05:04 13.6 °C 13.4 °C 1013.1 hPa Calm   1.1 km/h 99% 0.3 mm 0 W/m2
05:09 13.6 °C 13.4 °C 1013.4 hPa Calm   1.1 km/h 99% 0.0 mm 0 W/m2
05:14 13.6 °C 13.4 °C 1013.1 hPa Calm   2.6 km/h 99% 0.0 mm 0 W/m2
05:19 13.7 °C 13.6 °C 1013.1 hPa East 1.1 km/h 2.6 km/h 99% 0.0 mm 0 W/m2
05:24 13.8 °C 13.7 °C 1013.1 hPa East 1.1 km/h 2.6 km/h 99% 0.0 mm 0 W/m2
05:29 13.8 °C 13.7 °C 1012.8 hPa East 3.5 km/h 5.0 km/h 99% 0.0 mm 0 W/m2
05:34 13.8 °C 13.7 °C 1012.8 hPa East 3.5 km/h 6.1 km/h 99% 0.0 mm 0 W/m2
05:39 13.8 °C 13.7 °C 1012.8 hPa East 2.6 km/h 6.1 km/h 99% 0.0 mm 0 W/m2
05:44 13.8 °C 13.7 °C 1013.1 hPa East 2.6 km/h 5.0 km/h 99% 0.0 mm 0 W/m2
05:49 13.8 °C 13.7 °C 1013.1 hPa East 1.1 km/h 3.5 km/h 99% 0.0 mm 0 W/m2
05:54 13.9 °C 13.8 °C 1012.8 hPa East 1.1 km/h 3.5 km/h 99% 0.0 mm 0 W/m2
05:59 13.9 °C 13.8 °C 1012.8 hPa Calm   3.5 km/h 99% 0.0 mm 1 W/m2
06:04 13.9 °C 13.8 °C 1013.1 hPa Calm   3.5 km/h 99% 0.0 mm 1 W/m2
06:09 13.9 °C 13.8 °C 1012.8 hPa East 1.1 km/h 3.5 km/h 99% 0.0 mm 4 W/m2
06:14 13.9 °C 13.8 °C 1012.8 hPa Calm   3.5 km/h 99% 0.0 mm 5 W/m2
06:19 14.0 °C 13.8 °C 1012.8 hPa Calm   3.5 km/h 99% 0.0 mm 13 W/m2
06:24 14.0 °C 13.8 °C 1012.8 hPa Calm   3.5 km/h 99% 0.0 mm 15 W/m2
06:29 14.1 °C 13.9 °C 1012.4 hPa ENE 1.1 km/h 3.5 km/h 99% 0.0 mm 18 W/m2
06:34 14.1 °C 13.9 °C 1012.4 hPa East 1.1 km/h 3.5 km/h 99% 0.0 mm 24 W/m2
06:39 14.2 °C 14.1 °C 1012.4 hPa Calm   5.0 km/h 99% 0.0 mm 29 W/m2
06:44 14.2 °C 14.1 °C 1012.8 hPa Calm   5.0 km/h 99% 0.0 mm 24 W/m2
06:49 14.3 °C 14.2 °C 1012.8 hPa NE 1.1 km/h 3.5 km/h 99% 0.0 mm 22 W/m2
06:54 14.3 °C 14.2 °C 1012.1 hPa NE 1.1 km/h 3.5 km/h 99% 0.0 mm 26 W/m2
06:59 14.3 °C 14.2 °C 1012.4 hPa ENE 2.6 km/h 5.0 km/h 99% 0.0 mm 43 W/m2
07:04 14.4 °C 14.3 °C 1012.4 hPa East 2.6 km/h 5.0 km/h 99% 0.0 mm 52 W/m2
07:09 14.5 °C 14.3 °C 1012.4 hPa East 2.6 km/h 5.0 km/h 99% 0.0 mm 57 W/m2
07:14 14.6 °C 14.3 °C 1012.4 hPa East 2.6 km/h 5.0 km/h 98% 0.0 mm 52 W/m2
07:19 14.7 °C 14.4 °C 1012.1 hPa ENE 2.6 km/h 5.0 km/h 98% 0.0 mm 50 W/m2
07:24 14.8 °C 14.3 °C 1012.1 hPa ENE 2.6 km/h 5.0 km/h 97% 0.0 mm 40 W/m2
07:29 14.8 °C 14.3 °C 1012.1 hPa ENE 1.1 km/h 5.0 km/h 97% 0.0 mm 27 W/m2
07:34 14.8 °C 14.2 °C 1012.1 hPa NE 2.6 km/h 5.0 km/h 96% 0.0 mm 32 W/m2
07:39 14.8 °C 14.2 °C 1012.1 hPa NE 1.1 km/h 5.0 km/h 96% 0.0 mm 34 W/m2
07:44 14.8 °C 14.2 °C 1012.1 hPa Calm   3.5 km/h 96% 0.0 mm 32 W/m2
07:49 14.9 °C 14.3 °C 1011.7 hPa NE 1.1 km/h 2.6 km/h 96% 0.0 mm 34 W/m2
07:55 14.9 °C 14.3 °C 1012.1 hPa Calm   2.6 km/h 96% 0.0 mm 44 W/m2
08:00 15.0 °C 14.2 °C 1012.1 hPa Calm   1.1 km/h 95% 0.0 mm 38 W/m2
08:05 15.0 °C 14.2 °C 1012.1 hPa Calm     95% 0.0 mm 38 W/m2
08:10 15.0 °C 14.2 °C 1012.1 hPa Calm   1.1 km/h 95% 0.0 mm 37 W/m2
08:15 15.1 °C 14.3 °C 1012.1 hPa Calm   2.6 km/h 95% 0.0 mm 33 W/m2
08:20 15.1 °C 14.3 °C 1011.7 hPa North 1.1 km/h 3.5 km/h 95% 0.0 mm 33 W/m2
08:25 15.1 °C 14.2 °C 1011.7 hPa Calm   3.5 km/h 94% 0.0 mm 34 W/m2
08:30 15.1 °C 14.2 °C 1011.7 hPa Calm   3.5 km/h 94% 0.0 mm 36 W/m2
08:35 15.2 °C 14.2 °C 1011.7 hPa ENE 1.1 km/h 3.5 km/h 94% 0.0 mm 32 W/m2
08:40 15.2 °C 14.2 °C 1011.4 hPa Calm   3.5 km/h 94% 0.0 mm 39 W/m2
08:45 15.3 °C 14.3 °C 1011.4 hPa Calm   1.1 km/h 94% 0.0 mm 38 W/m2
08:50 15.4 °C 14.4 °C 1011.4 hPa Calm     94% 0.0 mm 49 W/m2
08:55 15.5 °C 14.6 °C 1011.4 hPa Calm     94% 0.0 mm 56 W/m2
09:00 15.5 °C 14.4 °C 1011.1 hPa ENE 1.1 km/h 2.6 km/h 93% 0.0 mm 62 W/m2
09:05 15.6 °C 14.5 °C 1011.4 hPa Calm   2.6 km/h 93% 0.0 mm 73 W/m2
09:10 15.7 °C 14.6 °C 1011.4 hPa Calm   2.6 km/h 93% 0.0 mm 97 W/m2
09:15 15.9 °C 14.8 °C 1011.1 hPa NE 1.1 km/h 2.6 km/h 93% 0.0 mm 93 W/m2
09:20 16.0 °C 14.6 °C 1010.7 hPa Calm   2.6 km/h 91% 0.0 mm 92 W/m2
09:25 16.1 °C 14.4 °C 1010.7 hPa NE 1.1 km/h 3.5 km/h 90% 0.0 mm 87 W/m2
09:30 16.2 °C 14.4 °C 1010.7 hPa ENE 1.1 km/h 3.5 km/h 89% 0.0 mm 90 W/m2
09:35 16.3 °C 14.5 °C 1010.7 hPa ENE 1.1 km/h 5.0 km/h 89% 0.0 mm 82 W/m2
09:40 16.3 °C 14.3 °C 1010.7 hPa ENE 1.1 km/h 6.1 km/h 88% 0.0 mm 73 W/m2
09:46 16.3 °C 14.3 °C 1010.7 hPa NE 2.6 km/h 6.1 km/h 88% 0.0 mm 86 W/m2
09:51 16.4 °C 14.4 °C 1010.7 hPa NE 3.5 km/h 6.1 km/h 88% 0.0 mm 86 W/m2
09:56 16.5 °C 14.3 °C 1010.7 hPa NE 2.6 km/h 6.1 km/h 87% 0.0 mm 99 W/m2
10:01 16.6 °C 14.6 °C 1010.0 hPa NE 2.6 km/h 5.0 km/h 88% 0.0 mm 88 W/m2
10:06 16.6 °C 14.4 °C 1010.0 hPa NE 5.0 km/h 8.7 km/h 87% 0.0 mm 73 W/m2
10:11 16.6 °C 14.4 °C 1010.4 hPa NE 1.1 km/h 8.7 km/h 87% 0.0 mm 96 W/m2
10:16 16.8 °C 14.6 °C 1010.0 hPa NE 1.1 km/h 6.1 km/h 87% 0.0 mm 98 W/m2
10:21 16.9 °C 14.7 °C 1010.0 hPa NNE 3.5 km/h 8.7 km/h 87% 0.0 mm 97 W/m2
10:26 17.1 °C 14.6 °C 1010.0 hPa NNE 3.5 km/h 8.7 km/h 85% 0.0 mm 99 W/m2
10:31 17.2 °C 14.7 °C 1009.7 hPa ENE 7.2 km/h 9.7 km/h 85% 0.0 mm 97 W/m2
10:36 17.1 °C 14.6 °C 1009.4 hPa ENE 6.1 km/h 9.7 km/h 85% 0.0 mm 104 W/m2
10:41 17.3 °C 14.8 °C 1009.4 hPa ENE 6.1 km/h 11.1 km/h 85% 0.0 mm 125 W/m2
10:46 17.4 °C 14.7 °C 1009.4 hPa NE 6.1 km/h 12.2 km/h 84% 0.0 mm 115 W/m2
10:51 17.5 °C 14.8 °C 1009.4 hPa NE 3.5 km/h 12.2 km/h 84% 0.0 mm 118 W/m2
10:56 17.6 °C 14.7 °C 1009.0 hPa NE 6.1 km/h 12.2 km/h 83% 0.0 mm 117 W/m2
11:01 17.7 °C 15.0 °C 1008.7 hPa NE 2.6 km/h 12.2 km/h 84% 0.0 mm 132 W/m2
11:06 17.9 °C 15.2 °C 1008.7 hPa NE 6.1 km/h 11.1 km/h 84% 0.0 mm 166 W/m2
11:11 18.2 °C 15.4 °C 1008.7 hPa NE 1.1 km/h 12.2 km/h 84% 0.0 mm 184 W/m2
11:16 18.5 °C 15.6 °C 1008.4 hPa NE 7.2 km/h 12.2 km/h 83% 0.0 mm 193 W/m2
11:21 18.7 °C 15.6 °C 1008.4 hPa NE 7.2 km/h 13.4 km/h 82% 0.0 mm 225 W/m2
11:26 18.9 °C 15.6 °C 1008.4 hPa NE 2.6 km/h 13.4 km/h 81% 0.0 mm 195 W/m2
11:32 19.2 °C 15.7 °C 1008.0 hPa NE 3.5 km/h 11.1 km/h 80% 0.0 mm 169 W/m2
11:37 19.3 °C 15.6 °C 1008.0 hPa NE 3.5 km/h 11.1 km/h 79% 0.0 mm 181 W/m2
11:42 19.6 °C 16.1 °C 1008.0 hPa NE 9.7 km/h 13.4 km/h 80% 0.0 mm 195 W/m2
11:47 19.7 °C 15.8 °C 1008.0 hPa NE 6.1 km/h 17.2 km/h 78% 0.0 mm 191 W/m2
11:52 19.9 °C 15.8 °C 1008.0 hPa NE 13.4 km/h 24.5 km/h 77% 0.0 mm 225 W/m2
11:57 20.0 °C 15.7 °C 1007.7 hPa NE 6.1 km/h 24.5 km/h 76% 0.0 mm 242 W/m2
12:02 20.3 °C 15.9 °C 1007.7 hPa NE 11.1 km/h 24.5 km/h 76% 0.0 mm 266 W/m2
12:07 20.5 °C 16.1 °C 1007.3 hPa NE 7.2 km/h 17.2 km/h 76% 0.0 mm 313 W/m2
12:12 20.6 °C 16.0 °C 1007.7 hPa NNE 9.7 km/h 17.2 km/h 75% 0.0 mm 232 W/m2
12:17 20.7 °C 16.1 °C 1007.3 hPa NNE 13.4 km/h 19.5 km/h 75% 0.0 mm 242 W/m2
12:22 20.6 °C 16.0 °C 1007.3 hPa North 11.1 km/h 19.5 km/h 75% 0.0 mm 178 W/m2
12:27 20.5 °C 15.9 °C 1007.3 hPa NNE 8.7 km/h 19.5 km/h 75% 0.0 mm 227 W/m2
12:33 20.6 °C 16.2 °C 1007.3 hPa North 12.2 km/h 23.3 km/h 76% 0.0 mm 221 W/m2
12:34 20.6 °C 16.2 °C 1007.3 hPa North 12.2 km/h 23.3 km/h 76% 0.0 mm 218 W/m2
12:39 20.7 °C 16.1 °C 1007.3 hPa North 9.7 km/h 25.6 km/h 75% 0.0 mm 311 W/m2
12:44 21.2 °C 16.4 °C 1007.0 hPa NNE 7.2 km/h 25.6 km/h 74% 0.0 mm 350 W/m2
12:49 21.3 °C 16.3 °C 1007.0 hPa North 13.4 km/h 23.3 km/h 73% 0.0 mm 375 W/m2
12:54 21.4 °C 16.6 °C 1006.7 hPa NNW 14.8 km/h 24.5 km/h 74% 0.0 mm 417 W/m2
12:59 21.7 °C 16.7 °C 1006.7 hPa NNW 6.1 km/h 24.5 km/h 73% 0.0 mm 403 W/m2
13:04 22.3 °C 16.8 °C 1006.7 hPa North 7.2 km/h 24.5 km/h 71% 0.0 mm 478 W/m2
13:09 22.7 °C 17.2 °C 1006.7 hPa NNE 15.8 km/h 21.9 km/h 71% 0.0 mm 563 W/m2
13:14 23.0 °C 17.3 °C 1006.3 hPa NNE 15.8 km/h 24.5 km/h 70% 0.0 mm 542 W/m2
13:19 23.4 °C 17.6 °C 1006.3 hPa North 8.7 km/h 24.5 km/h 70% 0.0 mm 583 W/m2
13:24 23.6 °C 17.1 °C 1006.0 hPa North 15.8 km/h 23.3 km/h 67% 0.0 mm 563 W/m2
13:29 23.3 °C 17.3 °C 1006.0 hPa North 11.1 km/h 23.3 km/h 69% 0.0 mm 744 W/m2
13:34 23.7 °C 17.7 °C 1006.0 hPa North 11.1 km/h 21.9 km/h 69% 0.0 mm 892 W/m2
13:51 24.8 °C 18.1 °C 1005.6 hPa North 13.4 km/h 27.0 km/h 66% 0.0 mm 984 W/m2
13:56 25.3 °C 18.0 °C 1005.6 hPa NNW 14.8 km/h 27.0 km/h 64% 0.0 mm 879 W/m2
14:01 25.2 °C 17.9 °C 1005.6 hPa NNW 17.2 km/h 24.5 km/h 64% 0.0 mm 594 W/m2
14:06 25.2 °C 17.9 °C 1005.6 hPa North 13.4 km/h 24.5 km/h 64% 0.0 mm 456 W/m2
14:11 24.9 °C 17.9 °C 1005.3 hPa North 12.2 km/h 25.6 km/h 65% 0.0 mm 559 W/m2
14:17 25.2 °C 18.2 °C 1005.3 hPa North 14.8 km/h 25.6 km/h 65% 0.0 mm 407 W/m2
14:22 25.3 °C 18.0 °C 1005.3 hPa North 11.1 km/h 21.9 km/h 64% 0.0 mm 520 W/m2
14:27 25.8 °C 18.2 °C 1005.3 hPa NNW 24.5 km/h 40.4 km/h 63% 0.0 mm 818 W/m2
14:32 26.9 °C 18.2 °C 1005.3 hPa NW 21.9 km/h 40.4 km/h 59% 0.0 mm 806 W/m2
14:37 26.6 °C 17.7 °C 1005.3 hPa NNW 19.5 km/h 35.6 km/h 58% 0.0 mm 826 W/m2
14:42 26.8 °C 17.6 °C 1005.0 hPa North 14.8 km/h 35.6 km/h 57% 0.0 mm 916 W/m2
14:47 26.8 °C 17.3 °C 1005.0 hPa NNW 18.3 km/h 35.6 km/h 56% 0.0 mm 767 W/m2
14:52 26.6 °C 16.8 °C 1005.0 hPa NW 20.9 km/h 35.6 km/h 55% 0.0 mm 460 W/m2
14:57 26.1 °C 16.9 °C 1004.6 hPa NNW 19.5 km/h 33.1 km/h 57% 0.0 mm 627 W/m2
15:02 26.4 °C 17.2 °C 1005.0 hPa NW 9.7 km/h 33.1 km/h 57% 0.0 mm 615 W/m2
15:07 26.6 °C 17.4 °C 1004.6 hPa NW 17.2 km/h 30.6 km/h 57% 0.0 mm 721 W/m2
15:12 26.8 °C 16.7 °C 1005.0 hPa NW 17.2 km/h 34.3 km/h 54% 0.0 mm 717 W/m2
15:17 26.7 °C 16.9 °C 1004.6 hPa NNW 19.5 km/h 34.3 km/h 55% 0.0 mm 1067 W/m2
15:22 26.8 °C 16.7 °C 1004.6 hPa NW 19.5 km/h 39.3 km/h 54% 0.0 mm 338 W/m2
15:27 26.4 °C 16.9 °C 1004.6 hPa NW 18.3 km/h 39.3 km/h 56% 0.0 mm 590 W/m2
15:32 26.6 °C 17.4 °C 1004.3 hPa NW 14.8 km/h 29.4 km/h 57% 0.0 mm 562 W/m2
15:37 26.3 °C 16.3 °C 1004.6 hPa NNW 19.5 km/h 37.8 km/h 54% 0.0 mm 584 W/m2
15:42 26.1 °C 16.4 °C 1004.3 hPa NNW 20.9 km/h 37.8 km/h 55% 0.0 mm 412 W/m2
15:47 25.9 °C 16.5 °C 1004.6 hPa NW 17.2 km/h 37.8 km/h 56% 0.0 mm 738 W/m2
15:52 25.9 °C 16.5 °C 1004.6 hPa NNW 14.8 km/h 37.8 km/h 56% 0.0 mm 597 W/m2
15:57 26.1 °C 16.4 °C 1004.6 hPa NW 17.2 km/h 33.1 km/h 55% 0.0 mm 408 W/m2
16:02 26.1 °C 15.8 °C 1004.6 hPa NW 18.3 km/h 33.1 km/h 53% 0.0 mm 447 W/m2
16:07 26.1 °C 15.5 °C 1004.6 hPa NNW 15.8 km/h 30.6 km/h 52% 0.0 mm 544 W/m2
16:12 26.1 °C 15.5 °C 1004.3 hPa NNW 14.8 km/h 34.3 km/h 52% 0.0 mm 773 W/m2
16:17 26.8 °C 16.4 °C 1004.3 hPa NW 12.2 km/h 34.3 km/h 53% 0.0 mm 915 W/m2
16:22 26.9 °C 16.2 °C 1004.3 hPa NNW 19.5 km/h 30.6 km/h 52% 0.0 mm 445 W/m2
16:27 26.4 °C 16.1 °C 1003.9 hPa North 11.1 km/h 30.6 km/h 53% 0.0 mm 673 W/m2
16:32 26.2 °C 15.9 °C 1003.9 hPa NNW 15.8 km/h 35.6 km/h 53% 0.0 mm 490 W/m2
16:37 26.1 °C 15.5 °C 1003.9 hPa NNW 18.3 km/h 35.6 km/h 52% 0.0 mm 387 W/m2
16:42 25.6 °C 14.4 °C 1003.9 hPa NNW 31.7 km/h 50.0 km/h 50% 0.0 mm 365 W/m2
16:47 25.8 °C 14.6 °C 1003.6 hPa NNW 20.9 km/h 50.0 km/h 50% 0.0 mm 390 W/m2
16:52 25.5 °C 14.0 °C 1003.6 hPa NW 24.5 km/h 54.1 km/h 49% 0.0 mm 270 W/m2
16:57 25.3 °C 14.2 °C 1003.3 hPa NW 23.3 km/h 54.1 km/h 50% 0.0 mm 359 W/m2
17:02 25.0 °C 14.2 °C 1003.6 hPa NW 18.3 km/h 39.3 km/h 51% 0.0 mm 195 W/m2
17:07 24.6 °C 14.4 °C 1003.6 hPa NW 20.9 km/h 39.3 km/h 53% 0.0 mm 146 W/m2
17:12 24.3 °C 14.4 °C 1003.6 hPa NW 20.9 km/h 41.7 km/h 54% 0.0 mm 136 W/m2
17:17 24.3 °C 14.4 °C 1003.6 hPa NW 18.3 km/h 41.7 km/h 54% 0.0 mm 139 W/m2
17:22 24.2 °C 14.3 °C 1003.3 hPa NW 11.1 km/h 35.6 km/h 54% 0.0 mm 131 W/m2
17:27 24.2 °C 14.6 °C 1003.3 hPa NNW 20.9 km/h 39.3 km/h 55% 0.0 mm 103 W/m2
17:32 24.1 °C 14.5 °C 1002.9 hPa North 28.0 km/h 39.3 km/h 55% 0.0 mm 134 W/m2
17:37 24.2 °C 14.6 °C 1002.9 hPa NNW 29.4 km/h 40.4 km/h 55% 0.0 mm 158 W/m2
17:42 24.2 °C 14.6 °C 1002.9 hPa NNW 19.5 km/h 40.4 km/h 55% 0.0 mm 155 W/m2
17:47 24.3 °C 15.0 °C 1002.9 hPa NNW 21.9 km/h 40.4 km/h 56% 0.0 mm 145 W/m2
17:52 24.3 °C 15.0 °C 1002.9 hPa NNW 24.5 km/h 35.6 km/h 56% 0.0 mm 139 W/m2
17:57 24.3 °C 15.0 °C 1002.9 hPa NW 14.8 km/h 30.6 km/h 56% 0.0 mm 143 W/m2
18:02 24.3 °C 15.0 °C 1002.9 hPa NW 8.7 km/h 30.6 km/h 56% 0.0 mm 115 W/m2
18:07 24.2 °C 15.2 °C 1002.9 hPa NW 21.9 km/h 34.3 km/h 57% 0.0 mm 101 W/m2
18:12 24.2 °C 15.2 °C 1002.9 hPa NW 12.2 km/h 34.3 km/h 57% 0.0 mm 109 W/m2
18:17 24.1 °C 15.1 °C 1002.3 hPa NNW 19.5 km/h 31.7 km/h 57% 0.0 mm 88 W/m2
18:22 24.0 °C 15.2 °C 1002.3 hPa NNW 17.2 km/h 31.7 km/h 58% 0.0 mm 68 W/m2
18:27 23.9 °C 15.4 °C 1001.9 hPa NNW 15.8 km/h 28.0 km/h 59% 0.0 mm 44 W/m2
18:32 23.5 °C 15.3 °C 1001.6 hPa NNW 15.8 km/h 25.6 km/h 60% 0.0 mm 43 W/m2
18:37 23.3 °C 15.4 °C 1002.3 hPa NNW 11.1 km/h 34.3 km/h 61% 0.0 mm 36 W/m2
18:42 23.3 °C 15.4 °C 1002.3 hPa NNW 18.3 km/h 34.3 km/h 61% 0.0 mm 36 W/m2
18:47 23.3 °C 15.4 °C 1002.3 hPa NNW 2.6 km/h 24.5 km/h 61% 0.0 mm 27 W/m2
18:52 23.3 °C 15.6 °C 1002.3 hPa North 3.5 km/h 24.5 km/h 62% 0.0 mm 24 W/m2
18:57 23.3 °C 15.6 °C 1002.6 hPa NNW 7.2 km/h 18.3 km/h 62% 0.0 mm 29 W/m2
19:02 23.4 °C 15.4 °C 1002.6 hPa NNW 9.7 km/h 20.9 km/h 61% 0.0 mm 33 W/m2
19:07 23.5 °C 15.6 °C 1002.6 hPa NNW 3.5 km/h 20.9 km/h 61% 0.0 mm 39 W/m2
19:12 23.7 °C 15.8 °C 1002.6 hPa Calm   20.9 km/h 61% 0.0 mm 145 W/m2
19:17 24.0 °C 15.5 °C 1002.9 hPa NW 5.0 km/h 18.3 km/h 59% 0.0 mm 93 W/m2
19:22 24.0 °C 15.5 °C 1002.9 hPa North 3.5 km/h 7.2 km/h 59% 0.0 mm 87 W/m2
19:27 23.9 °C 15.9 °C 1002.3 hPa North 6.1 km/h 13.4 km/h 61% 0.0 mm 106 W/m2
19:32 23.7 °C 15.8 °C 1002.3 hPa NNW 11.1 km/h 25.6 km/h 61% 0.0 mm 106 W/m2
19:37 24.0 °C 15.8 °C 1001.9 hPa NNW 14.8 km/h 25.6 km/h 60% 0.0 mm 199 W/m2
19:42 24.1 °C 15.9 °C 1002.3 hPa NNW 20.9 km/h 30.6 km/h 60% 0.0 mm 116 W/m2
19:47 24.4 °C 15.9 °C 1002.3 hPa NNW 14.8 km/h 30.6 km/h 59% 0.0 mm 156 W/m2
19:52 24.9 °C 15.8 °C 1002.6 hPa NNW 18.3 km/h 29.4 km/h 57% 0.0 mm 133 W/m2
19:57 25.1 °C 15.4 °C 1002.6 hPa NNW 17.2 km/h 33.1 km/h 55% 0.0 mm 125 W/m2
20:02 25.1 °C 15.4 °C 1002.9 hPa NW 7.2 km/h 33.1 km/h 55% 0.0 mm 106 W/m2
20:07 25.5 °C 15.8 °C 1002.9 hPa WNW 6.1 km/h 29.4 km/h 55% 0.0 mm 87 W/m2
20:12 25.8 °C 15.5 °C 1003.3 hPa WNW 8.7 km/h 15.8 km/h 53% 0.0 mm 66 W/m2
20:17 25.1 °C 15.4 °C 1002.9 hPa NNW 8.7 km/h 15.8 km/h 55% 0.0 mm 43 W/m2
20:22 24.4 °C 15.3 °C 1002.9 hPa NW 9.7 km/h 27.0 km/h 57% 0.0 mm 20 W/m2
20:27 24.1 °C 15.3 °C 1002.9 hPa NW 12.2 km/h 29.4 km/h 58% 0.0 mm 14 W/m2
20:32 23.9 °C 15.7 °C 1002.9 hPa NW 8.7 km/h 29.4 km/h 60% 0.0 mm 13 W/m2
20:37 23.8 °C 15.6 °C 1003.3 hPa NW 11.1 km/h 20.9 km/h 60% 0.0 mm 9 W/m2
20:42 23.7 °C 15.5 °C 1003.3 hPa NW 8.7 km/h 21.9 km/h 60% 0.0 mm 6 W/m2
20:47 23.6 °C 15.7 °C 1002.9 hPa NW 8.7 km/h 21.9 km/h 61% 0.0 mm 3 W/m2
20:52 23.6 °C 15.7 °C 1003.3 hPa NW 9.7 km/h 21.9 km/h 61% 0.0 mm 0 W/m2
20:57 23.5 °C 15.6 °C 1003.3 hPa NNW 8.7 km/h 20.9 km/h 61% 0.0 mm 0 W/m2
21:02 23.4 °C 15.4 °C 1003.6 hPa NNW 7.2 km/h 20.9 km/h 61% 0.0 mm 0 W/m2
21:07 23.4 °C 15.4 °C 1003.6 hPa NNW 11.1 km/h 17.2 km/h 61% 0.0 mm 0 W/m2
21:12 23.4 °C 15.4 °C 1003.6 hPa NNW 7.2 km/h 17.2 km/h 61% 0.0 mm 0 W/m2
21:17 23.3 °C 15.4 °C 1003.6 hPa NW 7.2 km/h 14.8 km/h 61% 0.0 mm 0 W/m2
21:22 23.2 °C 15.6 °C 1003.3 hPa NNW 7.2 km/h 13.4 km/h 62% 0.0 mm 0 W/m2
21:27 23.0 °C 15.3 °C 1003.6 hPa NNW 9.7 km/h 15.8 km/h 62% 0.0 mm 0 W/m2
21:32 23.0 °C 15.6 °C 1003.6 hPa NW 6.1 km/h 15.8 km/h 63% 0.0 mm 0 W/m2
21:37 22.8 °C 15.4 °C 1003.9 hPa NW 5.0 km/h 14.8 km/h 63% 0.0 mm 0 W/m2
21:42 22.6 °C 15.2 °C 1003.9 hPa NNW 7.2 km/h 12.2 km/h 63% 0.0 mm 0 W/m2
21:47 22.5 °C 15.4 °C 1003.9 hPa NNW 6.1 km/h 12.2 km/h 64% 0.0 mm 0 W/m2
21:52 22.5 °C 15.4 °C 1003.9 hPa NW 12.2 km/h 14.8 km/h 64% 0.0 mm 0 W/m2
21:57 22.6 °C 15.2 °C 1003.9 hPa NW 8.7 km/h 17.2 km/h 63% 0.0 mm 0 W/m2
22:02 22.7 °C 15.3 °C 1003.9 hPa NW 8.7 km/h 17.2 km/h 63% 0.0 mm 0 W/m2
22:07 22.4 °C 15.3 °C 1003.9 hPa NW 9.7 km/h 13.4 km/h 64% 0.0 mm 0 W/m2
22:12 22.3 °C 15.2 °C 1003.9 hPa NNW 6.1 km/h 13.4 km/h 64% 0.0 mm 0 W/m2
22:17 22.2 °C 15.3 °C 1003.9 hPa NNW 2.6 km/h 12.2 km/h 65% 0.0 mm 0 W/m2
22:22 22.2 °C 15.3 °C 1003.9 hPa NNW 2.6 km/h 12.2 km/h 65% 0.0 mm 0 W/m2
22:27 22.1 °C 15.2 °C 1003.9 hPa NNW 6.1 km/h 12.2 km/h 65% 0.0 mm 0 W/m2
22:32 22.1 °C 15.2 °C 1003.9 hPa NNW 2.6 km/h 9.7 km/h 65% 0.0 mm 0 W/m2
22:37 22.0 °C 15.1 °C 1003.9 hPa Calm   8.7 km/h 65% 0.0 mm 0 W/m2
22:42 21.8 °C 15.4 °C 1003.9 hPa Calm   7.2 km/h 67% 0.0 mm 0 W/m2
22:47 21.8 °C 15.4 °C 1003.9 hPa NW 3.5 km/h 12.2 km/h 67% 0.0 mm 0 W/m2
22:52 22.1 °C 15.2 °C 1004.3 hPa NNW 6.1 km/h 20.9 km/h 65% 0.0 mm 0 W/m2
22:57 22.2 °C 15.3 °C 1004.3 hPa NNW 3.5 km/h 20.9 km/h 65% 0.0 mm 0 W/m2
23:02 22.2 °C 15.3 °C 1004.3 hPa NNW 12.2 km/h 17.2 km/h 65% 0.0 mm 0 W/m2
23:07 22.2 °C 15.1 °C 1004.3 hPa NNW 5.0 km/h 17.2 km/h 64% 0.0 mm 0 W/m2
23:12 22.1 °C 15.2 °C 1004.3 hPa North 1.1 km/h 17.2 km/h 65% 0.0 mm 0 W/m2
23:17 21.9 °C 15.3 °C 1004.3 hPa NE 1.1 km/h 7.2 km/h 66% 0.0 mm 0 W/m2
23:22 21.9 °C 15.3 °C 1004.3 hPa North 3.5 km/h 12.2 km/h 66% 0.0 mm 0 W/m2
23:27 22.0 °C 15.1 °C 1004.3 hPa NNW 6.1 km/h 13.4 km/h 65% 0.0 mm 0 W/m2
23:32 22.0 °C 15.1 °C 1004.3 hPa North 12.2 km/h 17.2 km/h 65% 0.0 mm 0 W/m2
23:37 22.2 °C 14.8 °C 1004.3 hPa NNW 9.7 km/h 17.2 km/h 63% 0.0 mm 0 W/m2
23:42 22.3 °C 14.9 °C 1004.3 hPa NW 3.5 km/h 17.2 km/h 63% 0.0 mm 0 W/m2
23:47 22.2 °C 14.8 °C 1003.9 hPa NW 5.0 km/h 15.8 km/h 63% 0.0 mm 0 W/m2
23:52 22.1 °C 14.7 °C 1003.9 hPa NNW 9.7 km/h 17.2 km/h 63% 0.0 mm 0 W/m2
23:57 22.1 °C 14.7 °C 1003.9 hPa NNW 5.0 km/h 17.2 km/h 63% 0.0 mm 0 W/m2
Northern Hawkes Bay. New Zealand Historic Data
Compliments of Weather Underground - 2 mb